Time;durP1;ratioP1;P1;durP2;ratioP2;P2;SDS_P1;SDS_P2;PMS_P1;PMS_P2;Temp;Humidity;BMP_temperature;BMP_pressure;BME280_temperature;BME280_humidity;BME280_pressure;Samples;Min_cycle;Max_cycle;Signal;HPM_P1;HPM_P2
2021/01/25 00:01:08;;;;;;;5.68;2.85;;;;;;;11.73;100.00;99487.38;5035414;28;20017;-73
2021/01/25 00:03:54;;;;;;;5.35;2.78;;;;;;;11.73;100.00;99485.59;5035383;28;20030;-74
2021/01/25 00:06:40;;;;;;;6.22;2.60;;;;;;;11.88;100.00;99477.06;5036072;28;20068;-73
2021/01/25 00:09:25;;;;;;;7.13;3.65;;;;;;;12.14;100.00;99468.09;5037250;28;20017;-74
2021/01/25 00:12:11;;;;;;;5.65;3.30;;;;;;;11.79;100.00;99463.50;5035855;28;20036;-73
2021/01/25 00:14:57;;;;;;;6.47;3.20;;;;;;;12.12;100.00;99457.66;5036000;28;20032;-73
2021/01/25 00:17:43;;;;;;;5.32;3.03;;;;;;;12.41;100.00;99456.34;5035817;28;20079;-73
2021/01/25 00:20:28;;;;;;;7.00;3.22;;;;;;;12.47;100.00;99453.47;5036254;28;20037;-72
2021/01/25 00:23:14;;;;;;;8.10;3.70;;;;;;;11.81;100.00;99445.94;5036169;28;20100;-73
2021/01/25 00:26:00;;;;;;;6.65;3.53;;;;;;;12.02;100.00;99443.19;5035563;28;20029;-72
2021/01/25 00:28:46;;;;;;;5.85;3.67;;;;;;;12.16;100.00;99440.84;5036074;28;20040;-74
2021/01/25 00:31:31;;;;;;;8.23;3.83;;;;;;;12.01;100.00;99431.00;5035254;28;20080;-73
2021/01/25 00:34:17;;;;;;;5.90;3.67;;;;;;;12.38;100.00;99433.69;5035792;28;20171;-73
2021/01/25 00:37:03;;;;;;;7.07;3.92;;;;;;;12.21;100.00;99430.97;5034835;28;20099;-73
2021/01/25 00:39:49;;;;;;;5.45;3.58;;;;;;;12.76;100.00;99419.69;5021492;28;20029;-74
2021/01/25 00:42:34;;;;;;;7.25;3.92;;;;;;;12.55;100.00;99420.69;5034948;28;20102;-73
2021/01/25 00:45:20;;;;;;;6.55;3.58;;;;;;;12.57;100.00;99424.06;5035657;28;20039;-73
2021/01/25 00:48:06;;;;;;;7.40;3.65;;;;;;;12.68;100.00;99415.69;5034859;28;20033;-73
2021/01/25 00:50:55;;;;;;;6.28;3.90;;;;;;;12.64;100.00;99414.13;5035416;28;20408;-73
2021/01/25 00:53:41;;;;;;;6.60;3.40;;;;;;;12.42;100.00;99414.25;5035965;28;20025;-73
2021/01/25 00:56:26;;;;;;;9.07;3.60;;;;;;;12.78;100.00;99412.56;5021202;28;20036;-72
2021/01/25 00:59:12;;;;;;;6.72;3.80;;;;;;;13.11;100.00;99405.72;5034849;28;20442;-73
2021/01/25 01:01:58;;;;;;;5.47;3.50;;;;;;;12.91;100.00;99404.97;5035078;28;20385;-72
2021/01/25 01:04:44;;;;;;;4.82;3.60;;;;;;;13.15;100.00;99391.50;5035879;28;20057;-73
2021/01/25 01:07:29;;;;;;;7.88;3.58;;;;;;;13.18;100.00;99382.63;5034563;28;20580;-74
2021/01/25 01:10:15;;;;;;;7.63;3.88;;;;;;;13.26;100.00;99373.41;5035707;28;20412;-73
2021/01/25 01:13:01;;;;;;;7.22;3.92;;;;;;;12.50;100.00;99362.22;5034468;28;20108;-73
2021/01/25 01:15:47;;;;;;;7.63;3.85;;;;;;;12.53;100.00;99351.59;5033606;28;20079;-73
2021/01/25 01:18:34;;;;;;;8.20;3.97;;;;;;;12.92;100.00;99341.81;5021539;28;20044;-73
2021/01/25 01:21:20;;;;;;;7.40;3.58;;;;;;;12.80;100.00;99331.88;5034594;28;20048;-73
2021/01/25 01:24:07;;;;;;;5.65;3.50;;;;;;;12.84;100.00;99336.06;5035129;28;20099;-72
2021/01/25 01:26:52;;;;;;;7.13;3.80;;;;;;;12.80;100.00;99328.38;5034599;28;20032;-73
2021/01/25 01:29:38;;;;;;;8.73;4.05;;;;;;;13.17;100.00;99313.41;5035058;28;20454;-73
2021/01/25 01:32:24;;;;;;;7.97;4.05;;;;;;;12.80;100.00;99316.13;5034429;28;20025;-73
2021/01/25 01:35:10;;;;;;;8.25;3.72;;;;;;;12.58;100.00;99315.44;5035458;28;20037;-72
2021/01/25 01:37:55;;;;;;;6.05;3.55;;;;;;;12.78;100.00;99302.19;5035421;28;20500;-73
2021/01/25 01:40:41;;;;;;;5.57;3.72;;;;;;;13.00;100.00;99308.13;5035147;28;20025;-73
2021/01/25 01:43:27;;;;;;;7.78;3.65;;;;;;;12.86;100.00;99297.41;5033473;28;20528;-74
2021/01/25 01:46:14;;;;;;;6.70;3.50;;;;;;;13.03;100.00;99286.94;5035158;28;20029;-73
2021/01/25 01:49:00;;;;;;;7.03;3.40;;;;;;;13.25;100.00;99270.91;5034095;28;20037;-74
2021/01/25 01:51:46;;;;;;;6.20;3.63;;;;;;;13.08;100.00;99263.91;5020368;28;20458;-73
2021/01/25 01:54:32;;;;;;;7.35;3.78;;;;;;;13.11;100.00;99247.13;5034164;28;20385;-73
2021/01/25 01:57:18;;;;;;;9.38;3.60;;;;;;;13.34;100.00;99239.75;5034464;28;20033;-72
2021/01/25 02:00:07;;;;;;;6.43;3.30;;;;;;;13.18;100.00;99228.31;5034106;28;20029;-72
2021/01/25 02:02:52;;;;;;;6.93;3.63;;;;;;;13.41;100.00;99220.09;5033613;28;20032;-73
2021/01/25 02:05:43;;;;;;;8.07;3.75;;;;;;;13.17;100.00;99208.22;5034654;28;20331;-74
2021/01/25 02:08:30;;;;;;;6.65;3.50;;;;;;;13.14;100.00;99200.47;5033913;28;20033;-74
2021/01/25 02:11:16;;;;;;;6.97;3.53;;;;;;;12.90;100.00;99195.63;5020101;28;20029;-73
2021/01/25 02:14:04;;;;;;;8.75;3.80;;;;;;;12.77;100.00;99192.75;5033238;28;20530;-73
2021/01/25 02:16:50;;;;;;;11.15;4.25;;;;;;;12.61;100.00;99181.31;5019867;28;20377;-74
2021/01/25 02:19:43;;;;;;;8.13;3.58;;;;;;;12.63;100.00;99168.94;5020401;28;20112;-74
2021/01/25 02:22:37;;;;;;;6.95;3.60;;;;;;;12.61;100.00;99162.91;5033979;28;20076;-73
2021/01/25 02:25:35;;;;;;;6.28;3.53;;;;;;;13.04;100.00;99161.59;5033144;28;20026;-74
2021/01/25 02:28:20;;;;;;;5.93;3.40;;;;;;;12.98;100.00;99157.50;5037045;28;20029;-73
2021/01/25 02:31:09;;;;;;;8.40;3.72;;;;;;;13.25;100.00;99161.31;5038319;28;20041;-73
2021/01/25 02:33:57;;;;;;;7.93;3.40;;;;;;;13.10;100.00;99167.38;5038034;28;20044;-73
2021/01/25 02:36:45;;;;;;;8.15;3.72;;;;;;;12.93;100.00;99158.63;5036685;28;20026;-73
2021/01/25 02:39:32;;;;;;;6.88;3.47;;;;;;;12.86;100.00;99158.09;5039064;28;20421;-73
2021/01/25 02:42:18;;;;;;;5.65;3.25;;;;;;;12.76;100.00;99143.75;5036924;28;20488;-74
2021/01/25 02:45:05;;;;;;;8.55;3.67;;;;;;;12.89;100.00;99143.94;5024017;28;20040;-74
2021/01/25 02:47:53;;;;;;;9.13;3.35;;;;;;;12.70;100.00;99136.16;5037616;28;20029;-74
2021/01/25 02:50:38;;;;;;;5.88;3.30;;;;;;;12.64;100.00;99131.25;5038085;28;20040;-72
2021/01/25 02:53:24;;;;;;;5.95;3.17;;;;;;;12.87;100.00;99136.13;5036997;28;20021;-74
2021/01/25 02:56:11;;;;;;;5.10;3.40;;;;;;;12.63;100.00;99128.69;5022944;28;20025;-73
2021/01/25 02:58:57;;;;;;;5.22;3.03;;;;;;;12.87;100.00;99122.16;5038604;28;20029;-73
2021/01/25 03:01:45;;;;;;;6.93;3.60;;;;;;;12.81;100.00;99123.34;5037590;28;20029;-72
2021/01/25 03:04:33;;;;;;;8.23;3.38;;;;;;;13.13;100.00;99121.66;5038002;28;20022;-74
2021/01/25 03:07:19;;;;;;;4.47;3.28;;;;;;;13.00;100.00;99125.88;5037636;28;20037;-74
2021/01/25 03:10:05;;;;;;;10.95;4.10;;;;;;;13.11;100.00;99128.81;5037335;28;20026;-73
2021/01/25 03:12:52;;;;;;;5.38;3.53;;;;;;;13.43;100.00;99126.13;5036824;28;20033;-74
2021/01/25 03:15:39;;;;;;;10.13;4.00;;;;;;;13.56;100.00;99129.81;5038471;28;20039;-73
2021/01/25 03:18:26;;;;;;;10.88;3.95;;;;;;;13.42;100.00;99129.72;5036879;28;20044;-73
2021/01/25 03:21:11;;;;;;;7.60;3.50;;;;;;;13.64;100.00;99116.22;5037031;28;20449;-73
2021/01/25 03:23:57;;;;;;;7.45;3.55;;;;;;;13.47;100.00;99119.78;5036569;28;20079;-73
2021/01/25 03:26:43;;;;;;;6.13;3.22;;;;;;;13.89;100.00;99111.28;5037414;28;20022;-73
2021/01/25 03:29:29;;;;;;;10.15;3.65;;;;;;;13.78;100.00;99108.41;5038007;28;20030;-71
2021/01/25 03:32:15;;;;;;;6.90;3.83;;;;;;;13.69;100.00;99107.16;5037019;28;20045;-72
2021/01/25 03:35:02;;;;;;;11.38;4.53;;;;;;;13.66;100.00;99109.09;5022763;28;20064;-73
2021/01/25 03:37:48;;;;;;;9.02;3.83;;;;;;;13.83;100.00;99098.50;5036493;28;20029;-73
2021/01/25 03:40:34;;;;;;;8.02;3.70;;;;;;;13.97;100.00;99088.88;5036724;28;20109;-73
2021/01/25 03:43:20;;;;;;;10.77;4.22;;;;;;;13.87;100.00;99087.69;5036030;28;20063;-73
2021/01/25 03:46:05;;;;;;;9.38;4.18;;;;;;;14.04;100.00;99087.59;5036182;28;20029;-73
2021/01/25 03:48:51;;;;;;;8.82;3.42;;;;;;;13.89;100.00;99079.72;5022315;28;20029;-74
2021/01/25 03:51:37;;;;;;;11.52;3.17;;;;;;;13.87;100.00;99079.78;5037330;28;20100;-73
2021/01/25 03:54:23;;;;;;;6.93;3.28;;;;;;;14.04;100.00;99074.44;5036700;28;20028;-72
2021/01/25 03:57:09;;;;;;;7.75;2.90;;;;;;;14.06;100.00;99095.38;5036483;28;20034;-74
2021/01/25 03:59:54;;;;;;;6.35;3.10;;;;;;;14.14;100.00;99083.50;5036771;28;20471;-74
2021/01/25 04:02:40;;;;;;;7.10;3.42;;;;;;;14.13;100.00;99080.94;5036030;28;20025;-72
2021/01/25 04:05:26;;;;;;;9.35;3.22;;;;;;;14.25;100.00;99094.28;5037054;28;20029;-73
2021/01/25 04:08:15;;;;;;;8.70;3.35;;;;;;;14.21;100.00;99081.38;5036527;28;20482;-73
2021/01/25 04:11:01;;;;;;;8.02;3.10;;;;;;;14.30;100.00;99081.69;5036172;28;20029;-75
2021/01/25 04:13:47;;;;;;;7.03;3.20;;;;;;;14.41;100.00;99087.19;5036113;28;20031;-75
2021/01/25 04:16:32;;;;;;;7.70;2.65;;;;;;;14.20;100.00;99069.13;5035687;28;20053;-74
2021/01/25 04:19:18;;;;;;;6.47;3.13;;;;;;;14.45;100.00;99072.91;5035561;28;20036;-74
2021/01/25 04:22:04;;;;;;;7.72;3.08;;;;;;;14.49;100.00;99074.41;5036804;28;20075;-74
2021/01/25 04:24:50;;;;;;;6.55;3.13;;;;;;;14.39;100.00;99075.88;5035985;28;20035;-74
2021/01/25 04:27:35;;;;;;;8.23;3.10;;;;;;;14.45;100.00;99067.63;5037179;28;20033;-75
2021/01/25 04:30:21;;;;;;;5.65;3.15;;;;;;;14.38;100.00;99074.19;5022167;28;20037;-75
2021/01/25 04:33:07;;;;;;;8.40;3.40;;;;;;;14.40;100.00;99069.66;5035284;28;20101;-74
2021/01/25 04:35:53;;;;;;;7.40;3.20;;;;;;;14.33;100.00;99062.22;5036029;28;20025;-74
2021/01/25 04:38:39;;;;;;;7.10;3.25;;;;;;;14.50;100.00;99068.19;5036065;28;20056;-73
2021/01/25 04:41:25;;;;;;;6.80;3.40;;;;;;;14.45;100.00;99072.91;5021712;28;20105;-74
2021/01/25 04:44:11;;;;;;;7.43;3.30;;;;;;;14.32;100.00;99073.72;5016406;28;20038;-74
2021/01/25 04:47:00;;;;;;;7.78;3.53;;;;;;;14.58;100.00;99076.50;5018435;28;20037;-74
2021/01/25 04:49:47;;;;;;;5.80;3.10;;;;;;;14.53;100.00;99078.56;5016980;28;20032;-74
2021/01/25 04:52:33;;;;;;;6.57;3.50;;;;;;;14.63;100.00;99068.31;5018122;28;20469;-74
2021/01/25 04:55:19;;;;;;;9.88;3.55;;;;;;;14.52;100.00;99079.47;5016563;28;20049;-74
2021/01/25 04:58:05;;;;;;;6.43;3.88;;;;;;;14.48;100.00;99085.88;5015531;28;20403;-75
2021/01/25 05:00:52;;;;;;;5.70;3.10;;;;;;;14.52;100.00;99076.84;4998583;28;20050;-74
2021/01/25 05:03:37;;;;;;;7.35;3.75;;;;;;;14.60;100.00;99081.69;5014874;28;20022;-73
2021/01/25 05:06:23;;;;;;;7.32;3.60;;;;;;;14.56;100.00;99080.16;5015091;28;20557;-73
2021/01/25 05:09:09;;;;;;;4.28;3.60;;;;;;;14.54;100.00;99080.25;5001489;28;20513;-73
2021/01/25 05:11:58;;;;;;;8.65;3.95;;;;;;;14.59;100.00;99080.81;5001065;28;20457;-73
2021/01/25 05:14:47;;;;;;;7.63;4.00;;;;;;;14.44;100.00;99080.91;5015255;28;20033;-74
2021/01/25 05:17:33;;;;;;;7.65;3.53;;;;;;;14.59;100.00;99083.47;5015163;28;20121;-74
2021/01/25 05:20:26;;;;;;;6.93;3.83;;;;;;;14.62;100.00;99066.63;5014659;28;20030;-74
2021/01/25 05:23:13;;;;;;;9.13;3.42;;;;;;;14.47;100.00;99081.53;5015387;28;20026;-74
2021/01/25 05:26:09;;;;;;;7.15;3.85;;;;;;;14.57;100.00;99072.19;5014497;28;20068;-73
2021/01/25 05:28:55;;;;;;;6.28;3.45;;;;;;;14.66;100.00;99068.97;5015418;28;20087;-75
2021/01/25 05:31:41;;;;;;;8.20;3.60;;;;;;;14.67;100.00;99075.94;5014291;28;20026;-73
2021/01/25 05:34:27;;;;;;;6.22;3.50;;;;;;;14.52;100.00;99076.84;5015359;28;20056;-74
2021/01/25 05:37:14;;;;;;;6.10;3.42;;;;;;;14.64;100.00;99075.28;5014325;28;20080;-73
2021/01/25 05:40:00;;;;;;;10.05;4.25;;;;;;;14.61;100.00;99070.19;5014442;28;20402;-73
2021/01/25 05:42:46;;;;;;;6.57;3.53;;;;;;;14.72;100.00;99076.50;5024579;28;20058;-74
2021/01/25 05:45:31;;;;;;;7.43;3.50;;;;;;;14.76;100.00;99079.81;5035057;28;20048;-74
2021/01/25 05:48:17;;;;;;;6.25;3.60;;;;;;;14.75;100.00;99073.69;5034912;28;20030;-73
2021/01/25 05:51:12;;;;;;;6.88;3.22;;;;;;;14.69;100.00;99078.50;5033831;28;20106;-74
2021/01/25 05:54:03;;;;;;;7.45;3.97;;;;;;;14.68;100.00;99085.53;5034295;28;20026;-74
2021/01/25 05:56:50;;;;;;;8.32;4.18;;;;;;;14.77;100.00;99085.00;5033751;28;20052;-74
2021/01/25 05:59:35;;;;;;;9.85;3.60;;;;;;;14.82;100.00;99089.97;5033777;28;20026;-74
2021/01/25 06:02:24;;;;;;;10.15;3.65;;;;;;;14.74;100.00;99072.00;5032513;28;20116;-74
2021/01/25 06:05:13;;;;;;;6.68;3.92;;;;;;;14.53;100.00;99086.47;5034265;28;20061;-74
2021/01/25 06:08:38;;;;;;;8.65;3.90;;;;;;;14.69;100.00;99095.16;5032891;28;20529;-74
2021/01/25 06:11:28;;;;;;;8.23;4.10;;;;;;;14.78;100.00;99096.38;5034175;28;20129;-74
2021/01/25 06:14:23;;;;;;;8.00;3.88;;;;;;;14.99;100.00;99097.72;5033334;28;20026;-76
2021/01/25 06:17:11;;;;;;;6.28;3.00;;;;;;;14.71;100.00;99103.00;5019910;28;20036;-74
2021/01/25 06:19:57;;;;;;;8.88;3.30;;;;;;;14.69;100.00;99108.34;5033470;28;20107;-74
2021/01/25 06:22:45;;;;;;;6.57;3.60;;;;;;;14.64;100.00;99096.38;5034102;28;20103;-73
2021/01/25 06:25:31;;;;;;;12.57;5.15;;;;;;;14.63;100.00;99106.06;5033363;28;20059;-73
2021/01/25 06:28:17;;;;;;;7.60;3.95;;;;;;;14.55;100.00;99089.03;5034116;28;20025;-74
2021/01/25 06:31:04;;;;;;;7.70;3.83;;;;;;;14.51;100.00;99095.41;5019730;28;20393;-74
2021/01/25 06:33:50;;;;;;;10.27;3.80;;;;;;;14.40;100.00;99089.91;5034330;28;20061;-74
2021/01/25 06:36:38;;;;;;;10.27;4.10;;;;;;;14.27;100.00;99097.69;5033353;28;20036;-74
2021/01/25 06:39:26;;;;;;;10.55;3.97;;;;;;;14.38;100.00;99104.94;5033751;28;20052;-73
2021/01/25 06:42:16;;;;;;;9.60;3.47;;;;;;;14.17;100.00;99085.94;5034255;28;20053;-74
2021/01/25 06:45:04;;;;;;;8.48;3.90;;;;;;;14.17;100.00;99093.00;5033771;28;20120;-74
2021/01/25 06:47:51;;;;;;;9.95;3.47;;;;;;;13.99;100.00;99101.97;5033518;28;20477;-73
2021/01/25 06:50:37;;;;;;;7.07;3.30;;;;;;;13.93;100.00;99105.78;5018857;28;20030;-74
2021/01/25 06:53:26;;;;;;;7.25;3.47;;;;;;;14.09;100.00;99097.84;5019747;28;20454;-73
2021/01/25 06:56:12;;;;;;;7.55;3.58;;;;;;;14.05;100.00;99102.47;5032480;28;20526;-73
2021/01/25 06:58:58;;;;;;;11.02;3.75;;;;;;;13.88;100.00;99106.97;5034437;28;20053;-73
2021/01/25 07:01:49;;;;;;;9.13;4.30;;;;;;;13.90;100.00;99113.00;5032551;28;20025;-75
2021/01/25 07:04:46;;;;;;;8.80;4.35;;;;;;;13.89;100.00;99099.00;5034004;28;20041;-73
2021/01/25 07:07:32;;;;;;;8.35;3.95;;;;;;;13.97;100.00;99114.34;5032802;28;20036;-74
2021/01/25 07:10:20;;;;;;;8.30;3.78;;;;;;;14.16;100.00;99110.56;5033973;28;20095;-73
2021/01/25 07:13:06;;;;;;;13.43;4.18;;;;;;;14.20;100.00;99112.09;5033670;28;20026;-74
2021/01/25 07:15:53;;;;;;;11.52;4.32;;;;;;;14.27;100.00;99125.81;5036598;28;20037;-74
2021/01/25 07:18:42;;;;;;;7.63;3.70;;;;;;;14.09;100.00;99121.56;5036701;28;20029;-74
2021/01/25 07:21:30;;;;;;;10.32;5.38;;;;;;;14.15;100.00;99137.03;5036843;28;20442;-75
2021/01/25 07:24:22;;;;;;;10.10;4.53;;;;;;;13.94;100.00;99141.69;5037347;28;20454;-74
2021/01/25 07:27:07;;;;;;;10.57;4.30;;;;;;;14.04;100.00;99149.94;5036917;28;20103;-73
2021/01/25 07:29:53;;;;;;;9.30;3.65;;;;;;;13.94;100.00;99152.22;5036738;28;20535;-73
2021/01/25 07:32:39;;;;;;;11.23;4.55;;;;;;;14.14;100.00;99154.59;5021899;28;20091;-74
2021/01/25 07:35:28;;;;;;;9.68;4.05;;;;;;;13.81;100.00;99184.59;5037788;28;20040;-74
2021/01/25 07:38:14;;;;;;;10.95;5.88;;;;;;;13.88;100.00;99188.59;5035781;28;20022;-73
2021/01/25 07:41:00;;;;;;;11.57;5.45;;;;;;;13.99;100.00;99194.94;5022720;28;20033;-75
2021/01/25 07:43:46;;;;;;;7.20;3.95;;;;;;;13.78;100.00;99196.13;5036116;28;20359;-74
2021/01/25 07:46:32;;;;;;;11.25;4.97;;;;;;;13.58;100.00;99188.47;5036155;28;20481;-74
2021/01/25 07:49:27;;;;;;;11.30;4.57;;;;;;;13.42;100.00;99173.59;5036154;28;20099;-74
2021/01/25 07:52:16;;;;;;;9.45;4.28;;;;;;;13.72;100.00;99171.94;5036312;28;20025;-74
2021/01/25 07:55:11;;;;;;;8.65;4.22;;;;;;;13.71;100.00;99186.84;5036068;28;20087;-74
2021/01/25 07:58:10;;;;;;;12.15;5.30;;;;;;;13.58;100.00;99184.97;5036580;28;20025;-74
2021/01/25 08:00:56;;;;;;;11.50;6.32;;;;;;;13.49;100.00;99185.47;5035971;28;20042;-74
2021/01/25 08:03:43;;;;;;;11.40;6.05;;;;;;;13.94;100.00;99190.88;5035464;28;20045;-74
2021/01/25 08:06:35;;;;;;;12.60;6.72;;;;;;;13.81;100.00;99203.00;5036698;28;20036;-74
2021/01/25 08:09:22;;;;;;;14.73;7.30;;;;;;;13.75;100.00;99216.50;5036382;28;20036;-74
2021/01/25 08:12:08;;;;;;;12.77;6.30;;;;;;;13.33;100.00;99224.91;5036119;28;20449;-73
2021/01/25 08:15:00;;;;;;;7.38;4.20;;;;;;;13.04;100.00;99225.56;5034550;28;20029;-74
2021/01/25 08:17:53;;;;;;;12.70;4.93;;;;;;;12.92;100.00;99220.03;5036857;28;20044;-74
2021/01/25 08:20:39;;;;;;;11.88;4.80;;;;;;;13.20;100.00;99215.09;5034977;28;20063;-74
2021/01/25 08:23:28;;;;;;;10.70;4.90;;;;;;;13.25;100.00;99211.28;5034783;28;20021;-74
2021/01/25 08:26:22;;;;;;;11.82;5.40;;;;;;;13.12;100.00;99222.53;5034896;28;20021;-74
2021/01/25 08:29:19;;;;;;;12.82;6.15;;;;;;;13.57;100.00;99233.28;5036140;28;20025;-74
2021/01/25 08:32:23;;;;;;;14.90;6.43;;;;;;;13.25;100.00;99260.41;5021263;28;20466;-74
2021/01/25 08:35:11;;;;;;;20.95;8.32;;;;;;;13.27;100.00;99264.66;5036624;28;20044;-74
2021/01/25 08:38:31;;;;;;;14.10;5.55;;;;;;;12.83;100.00;99268.63;5034867;28;20017;-74
2021/01/25 08:41:23;;;;;;;10.50;5.07;;;;;;;12.30;100.00;99285.31;5035772;28;20103;-75
2021/01/25 08:44:18;;;;;;;11.38;5.03;;;;;;;12.31;100.00;99285.25;5034535;28;20402;-74
2021/01/25 08:47:08;;;;;;;7.75;4.63;;;;;;;12.07;100.00;99299.50;5035800;28;20029;-74
2021/01/25 08:49:55;;;;;;;8.60;5.40;;;;;;;11.62;100.00;99308.59;5034394;28;20064;-75
2021/01/25 08:52:40;;;;;;;11.70;6.10;;;;;;;11.52;100.00;99328.22;5036402;28;20043;-73
2021/01/25 08:55:41;;;;;;;11.27;7.13;;;;;;;11.82;100.00;99333.00;5035391;28;20044;-74
2021/01/25 08:58:31;;;;;;;9.82;6.60;;;;;;;11.37;100.00;99345.47;5021370;28;20030;-74
2021/01/25 09:01:23;;;;;;;10.93;6.78;;;;;;;11.25;100.00;99356.47;5034668;28;20029;-74
2021/01/25 09:04:25;;;;;;;13.50;7.65;;;;;;;10.97;100.00;99369.00;5021162;28;20029;-75
2021/01/25 09:07:16;;;;;;;12.13;7.82;;;;;;;10.76;100.00;99376.88;5021394;28;20057;-74
2021/01/25 09:10:04;;;;;;;13.32;8.77;;;;;;;10.13;100.00;99383.63;5035110;28;20025;-74
2021/01/25 09:12:50;;;;;;;15.98;9.32;;;;;;;10.13;100.00;99394.09;5034462;28;20033;-74
2021/01/25 09:15:36;;;;;;;12.85;9.57;;;;;;;10.30;100.00;99398.72;5034586;28;20044;-73
2021/01/25 09:18:22;;;;;;;16.25;11.02;;;;;;;9.98;100.00;99419.94;5034975;28;20025;-73
2021/01/25 09:21:08;;;;;;;21.05;12.85;;;;;;;9.67;100.00;99424.53;5020235;28;20442;-74
2021/01/25 09:23:53;;;;;;;20.30;13.00;;;;;;;9.43;100.00;99448.88;5034771;28;20029;-75
2021/01/25 09:26:39;;;;;;;21.15;13.50;;;;;;;9.51;100.00;99463.44;5034299;28;20126;-74
2021/01/25 09:29:25;;;;;;;20.75;13.73;;;;;;;9.29;100.00;99469.41;5034306;28;20021;-74
2021/01/25 09:32:11;;;;;;;25.77;15.32;;;;;;;9.36;100.00;99483.97;5033585;28;20034;-74
2021/01/25 09:34:57;;;;;;;23.55;16.17;;;;;;;9.27;100.00;99485.13;5034905;28;20057;-74
2021/01/25 09:37:46;;;;;;;25.38;17.33;;;;;;;9.14;100.00;99483.81;5033418;28;20029;-74
2021/01/25 09:40:34;;;;;;;21.00;14.98;;;;;;;9.18;100.00;99501.09;5033329;28;20017;-74
2021/01/25 09:43:19;;;;;;;30.08;17.98;;;;;;;9.34;100.00;99514.53;5034213;28;20386;-74
2021/01/25 09:46:05;;;;;;;25.60;16.95;;;;;;;8.79;100.00;99514.50;5034313;28;20018;-74
2021/01/25 09:48:51;;;;;;;22.80;16.80;;;;;;;8.65;100.00;99522.72;5034118;28;20033;-75
2021/01/25 09:51:37;;;;;;;24.27;15.55;;;;;;;8.42;100.00;99526.88;5034225;28;20446;-73
2021/01/25 09:54:23;;;;;;;20.15;14.90;;;;;;;8.34;100.00;99539.28;5034070;28;20030;-73
2021/01/25 09:57:09;;;;;;;23.90;15.93;;;;;;;8.53;100.00;99561.38;5033894;28;20056;-74
2021/01/25 09:59:55;;;;;;;15.00;9.73;;;;;;;8.15;100.00;99574.53;5019630;28;20037;-74
2021/01/25 10:02:41;;;;;;;6.53;5.18;;;;;;;7.64;100.00;99586.28;5034003;28;20029;-74
2021/01/25 10:05:27;;;;;;;5.35;3.50;;;;;;;7.17;100.00;99597.78;5034854;28;20091;-74
2021/01/25 10:08:13;;;;;;;5.97;3.08;;;;;;;6.95;100.00;99595.69;5019797;28;20062;-73
2021/01/25 10:10:58;;;;;;;3.95;2.95;;;;;;;6.98;100.00;99609.47;5020499;28;20040;-75
2021/01/25 10:13:44;;;;;;;4.68;3.10;;;;;;;6.76;100.00;99618.63;5033259;28;20090;-74
2021/01/25 10:16:30;;;;;;;4.07;3.25;;;;;;;6.77;100.00;99641.16;5034187;28;20060;-73
2021/01/25 10:19:16;;;;;;;6.53;4.50;;;;;;;6.85;100.00;99638.38;5034280;28;20032;-74
2021/01/25 10:22:01;;;;;;;4.90;3.53;;;;;;;6.69;100.00;99668.19;5033378;28;20036;-73
2021/01/25 10:24:47;;;;;;;3.83;3.13;;;;;;;6.33;100.00;99658.44;5034264;28;20116;-73
2021/01/25 10:27:38;;;;;;;5.80;4.28;;;;;;;6.22;100.00;99665.59;5019877;28;20018;-74
2021/01/25 10:30:24;;;;;;;10.80;2.85;;;;;;;6.10;100.00;99689.19;5033180;28;20445;-73
2021/01/25 10:33:10;;;;;;;3.88;3.22;;;;;;;6.37;100.00;99688.72;5034013;28;20021;-73
2021/01/25 10:35:56;;;;;;;3.83;2.90;;;;;;;6.13;100.00;99683.91;5033997;28;20036;-74
2021/01/25 10:38:41;;;;;;;3.10;2.50;;;;;;;6.29;100.00;99688.00;5032946;28;20339;-73
2021/01/25 10:41:27;;;;;;;3.28;2.80;;;;;;;6.32;100.00;99680.16;5034094;28;20401;-73
2021/01/25 10:44:17;;;;;;;3.85;2.80;;;;;;;6.38;100.00;99683.50;5032653;28;20427;-73
2021/01/25 10:47:03;;;;;;;4.28;3.00;;;;;;;6.32;100.00;99668.00;5034658;28;20079;-74
2021/01/25 10:49:49;;;;;;;3.80;2.67;;;;;;;6.24;100.00;99675.09;5021713;28;20039;-73
2021/01/25 10:52:35;;;;;;;3.45;2.72;;;;;;;6.43;100.00;99684.25;5037550;28;20095;-73
2021/01/25 10:55:21;;;;;;;3.30;2.50;;;;;;;6.49;100.00;99659.88;5022862;28;20029;-74
2021/01/25 10:58:07;;;;;;;4.70;3.35;;;;;;;6.70;100.00;99662.09;5024179;28;20029;-73
2021/01/25 11:00:54;;;;;;;4.07;2.88;;;;;;;6.71;100.00;99676.84;5037714;28;20374;-73
2021/01/25 11:03:40;;;;;;;4.22;2.90;;;;;;;6.69;100.00;99658.66;5037302;28;20104;-73
2021/01/25 11:06:25;;;;;;;4.28;3.15;;;;;;;6.60;100.00;99668.38;5023326;28;20031;-74
2021/01/25 11:09:11;;;;;;;2.95;2.30;;;;;;;6.43;100.00;99662.63;5023186;28;20353;-74
2021/01/25 11:11:57;;;;;;;5.75;3.00;;;;;;;6.34;100.00;99647.19;5037661;28;20052;-74
2021/01/25 11:14:43;;;;;;;3.65;2.60;;;;;;;6.27;100.00;99633.41;5036346;28;20041;-74
2021/01/25 11:17:28;;;;;;;3.83;2.78;;;;;;;6.63;100.00;99657.91;5024384;28;20551;-74
2021/01/25 11:20:15;;;;;;;4.72;2.80;;;;;;;6.60;100.00;99653.63;5036553;28;20029;-74
2021/01/25 11:23:00;;;;;;;3.10;2.55;;;;;;;6.46;100.00;99647.81;5037685;28;20033;-74
2021/01/25 11:25:46;;;;;;;4.63;3.00;;;;;;;6.60;100.00;99655.34;5036393;28;20322;-74
2021/01/25 11:28:32;;;;;;;3.55;2.60;;;;;;;6.79;100.00;99669.75;5036840;28;20538;-73
2021/01/25 11:31:18;;;;;;;3.40;2.72;;;;;;;6.49;100.00;99665.97;5036409;28;20040;-73
2021/01/25 11:34:04;;;;;;;3.25;2.50;;;;;;;6.40;100.00;99653.13;5036407;28;20117;-73
2021/01/25 11:36:50;;;;;;;3.97;2.60;;;;;;;6.42;100.00;99651.34;5036627;28;20029;-75
2021/01/25 11:39:36;;;;;;;4.32;2.70;;;;;;;6.63;100.00;99650.09;5036601;28;20057;-75
2021/01/25 11:42:22;;;;;;;4.05;2.70;;;;;;;6.81;100.00;99645.41;5035951;28;20084;-73
2021/01/25 11:45:09;;;;;;;2.60;1.92;;;;;;;6.98;100.00;99642.44;5037071;28;20474;-73
2021/01/25 11:47:55;;;;;;;3.28;2.53;;;;;;;6.99;100.00;99650.25;5036601;28;20411;-75
2021/01/25 11:50:40;;;;;;;3.13;2.10;;;;;;;6.88;100.00;99659.16;5022809;28;20496;-73
2021/01/25 11:53:26;;;;;;;4.07;2.60;;;;;;;6.79;100.00;99660.19;5035856;28;20026;-74
2021/01/25 11:56:12;;;;;;;4.18;2.60;;;;;;;7.01;100.00;99666.69;5035378;28;20033;-73
2021/01/25 11:58:58;;;;;;;3.42;2.33;;;;;;;7.04;100.00;99656.22;5037624;28;20531;-74
2021/01/25 12:01:44;;;;;;;5.97;2.95;;;;;;;7.31;100.00;99649.59;5035405;28;20053;-74
2021/01/25 12:04:29;;;;;;;4.70;2.60;;;;;;;7.47;100.00;99648.38;5037429;28;20025;-73
2021/01/25 12:07:15;;;;;;;3.25;2.33;;;;;;;7.16;100.00;99644.69;5035785;28;20401;-74
2021/01/25 12:10:01;;;;;;;4.03;2.03;;;;;;;7.49;100.00;99641.34;5036679;28;20025;-74
2021/01/25 12:12:47;;;;;;;2.80;2.20;;;;;;;7.45;100.00;99644.91;5035297;28;20064;-74
2021/01/25 12:15:32;;;;;;;3.50;2.45;;;;;;;7.65;100.00;99651.41;5035555;28;20454;-74
2021/01/25 12:18:18;;;;;;;4.00;2.53;;;;;;;7.43;100.00;99662.34;5022025;28;20113;-73
2021/01/25 12:21:04;;;;;;;4.13;2.75;;;;;;;7.59;100.00;99661.97;5035209;28;20115;-71
2021/01/25 12:23:51;;;;;;;3.63;2.70;;;;;;;7.70;100.00;99657.38;5036352;28;20037;-73
2021/01/25 12:26:37;;;;;;;6.32;2.90;;;;;;;7.67;100.00;99648.78;5020863;28;20017;-73
2021/01/25 12:29:36;;;;;;;3.63;2.58;;;;;;;7.65;100.00;99650.56;5037722;28;20409;-72
2021/01/25 12:32:22;;;;;;;4.18;2.78;;;;;;;7.71;100.00;99659.09;5021374;28;20377;-73
2021/01/25 12:35:34;;;;;;;3.38;2.50;;;;;;;7.72;100.00;99649.53;5037379;28;20029;-74
2021/01/25 12:38:23;;;;;;;2.92;2.42;;;;;;;7.66;100.00;99650.53;5010105;28;20056;-74
2021/01/25 12:41:08;;;;;;;3.42;2.67;;;;;;;7.71;100.00;99656.47;5021301;28;20033;-73
2021/01/25 12:43:57;;;;;;;5.90;3.95;;;;;;;8.20;100.00;99666.63;5034715;28;20053;-74
2021/01/25 12:46:44;;;;;;;6.20;2.50;;;;;;;8.24;100.00;99674.34;5034256;28;20105;-74
2021/01/25 12:49:33;;;;;;;3.20;2.63;;;;;;;8.48;100.00;99667.66;5021970;28;20453;-73
2021/01/25 12:52:19;;;;;;;17.10;2.90;;;;;;;8.38;100.00;99659.22;5036573;28;20374;-73
2021/01/25 12:55:09;;;;;;;4.20;3.10;;;;;;;8.73;100.00;99682.63;5021711;28;20434;-73
2021/01/25 12:57:55;;;;;;;3.60;2.63;;;;;;;8.51;100.00;99671.03;5035167;28;20453;-72